Time;durP1;ratioP1;P1;durP2;ratioP2;P2;SDS_P1;SDS_P2;PMS_P1;PMS_P2;Temp;Humidity;BMP_temperature;BMP_pressure;BME280_temperature;BME280_humidity;BME280_pressure;Samples;Min_cycle;Max_cycle;Signal;HPM_P1;HPM_P2
2023/09/01 00:00:33;;;;;;;3.38;1.90;;;16.70;65.50;;;;;;5055166;28;20439;-73
2023/09/01 00:02:58;;;;;;;4.25;1.98;;;16.60;65.70;;;;;;5055270;28;20049;-74
2023/09/01 00:05:24;;;;;;;3.33;1.60;;;16.60;65.90;;;;;;5055153;28;20102;-72
2023/09/01 00:07:49;;;;;;;2.85;1.60;;;16.60;65.90;;;;;;5054985;28;20021;-72
2023/09/01 00:10:15;;;;;;;4.07;1.50;;;16.70;66.40;;;;;;5053855;28;20487;-72
2023/09/01 00:12:41;;;;;;;3.85;1.60;;;16.70;67.00;;;;;;5054836;28;20029;-73
2023/09/01 00:15:06;;;;;;;2.55;1.42;;;16.80;67.20;;;;;;5055269;28;20387;-73
2023/09/01 00:17:32;;;;;;;4.75;1.65;;;16.90;66.90;;;;;;5055257;28;20079;-73
2023/09/01 00:19:57;;;;;;;3.60;1.70;;;16.80;67.00;;;;;;5055197;28;20056;-73
2023/09/01 00:22:23;;;;;;;4.90;1.45;;;16.80;67.30;;;;;;5055099;28;20108;-73
2023/09/01 00:24:48;;;;;;;3.33;1.67;;;16.80;67.70;;;;;;5055276;28;20096;-73
2023/09/01 00:27:14;;;;;;;3.72;1.73;;;16.80;67.70;;;;;;5055176;28;20542;-73
2023/09/01 00:29:40;;;;;;;5.43;1.40;;;16.80;67.60;;;;;;5055234;28;20127;-73
2023/09/01 00:32:05;;;;;;;4.43;1.98;;;16.80;67.40;;;;;;5055070;28;20067;-74
2023/09/01 00:34:31;;;;;;;5.38;1.60;;;16.80;67.00;;;;;;5055019;28;20029;-73
2023/09/01 00:36:57;;;;;;;3.55;1.70;;;16.80;67.10;;;;;;5054919;28;20021;-73
2023/09/01 00:39:22;;;;;;;4.35;1.90;;;16.90;67.40;;;;;;5055120;28;20082;-72
2023/09/01 00:41:48;;;;;;;2.22;1.65;;;16.80;67.40;;;;;;5055030;28;20379;-72
2023/09/01 00:44:14;;;;;;;3.38;1.60;;;16.80;67.60;;;;;;5054838;28;20379;-72
2023/09/01 00:46:43;;;;;;;3.55;1.88;;;16.80;67.40;;;;;;5062971;28;20021;-74
2023/09/01 00:49:10;;;;;;;2.63;1.70;;;16.80;67.60;;;;;;5054862;28;20104;-73
2023/09/01 00:51:36;;;;;;;3.80;1.80;;;16.80;67.80;;;;;;5054713;28;20025;-73
2023/09/01 00:54:02;;;;;;;4.60;1.50;;;16.70;67.90;;;;;;5054588;28;20108;-73
2023/09/01 00:56:28;;;;;;;3.40;1.92;;;16.80;67.80;;;;;;5054520;28;20032;-73
2023/09/01 00:58:53;;;;;;;5.18;1.90;;;16.80;67.80;;;;;;5054501;28;20481;-72
2023/09/01 01:01:19;;;;;;;3.25;1.55;;;16.80;67.80;;;;;;5053624;28;20445;-72
2023/09/01 01:03:45;;;;;;;5.10;1.67;;;16.80;68.10;;;;;;5054296;28;20025;-73
2023/09/01 01:06:29;;;;;;;5.88;1.80;;;16.80;67.80;;;;;;5054462;28;20107;-74
2023/09/01 01:08:55;;;;;;;4.38;1.58;;;16.70;68.10;;;;;;5054271;28;20037;-73
2023/09/01 01:11:27;;;;;;;2.05;1.55;;;16.70;68.20;;;;;;5054223;28;20076;-74
2023/09/01 01:13:58;;;;;;;3.95;1.67;;;16.80;68.10;;;;;;5054228;28;20029;-73
2023/09/01 01:16:26;;;;;;;3.00;1.38;;;16.70;68.30;;;;;;5054086;28;20402;-72
2023/09/01 01:18:54;;;;;;;2.63;1.40;;;16.80;68.60;;;;;;5054074;28;20570;-73
2023/09/01 01:21:26;;;;;;;3.88;1.65;;;16.90;68.70;;;;;;5053970;28;20021;-74
2023/09/01 01:23:53;;;;;;;3.60;1.50;;;16.80;68.60;;;;;;5054326;28;20031;-72
2023/09/01 01:26:19;;;;;;;3.05;1.20;;;16.80;68.70;;;;;;5054057;28;20029;-72
2023/09/01 01:28:45;;;;;;;3.80;1.50;;;16.80;68.80;;;;;;5053834;28;20496;-73
2023/09/01 01:31:12;;;;;;;3.28;1.20;;;16.80;69.10;;;;;;5053733;28;20029;-72
2023/09/01 01:33:47;;;;;;;2.35;1.13;;;16.80;69.40;;;;;;5052513;28;20066;-73
2023/09/01 01:36:38;;;;;;;2.08;1.33;;;16.70;69.70;;;;;;5053877;28;20028;-73
2023/09/01 01:39:09;;;;;;;4.50;1.48;;;16.80;69.80;;;;;;5033771;28;20399;-72
2023/09/01 01:41:52;;;;;;;2.72;1.02;;;16.80;69.90;;;;;;5033598;28;20426;-73
2023/09/01 01:44:22;;;;;;;3.97;1.40;;;16.80;70.00;;;;;;5033836;28;20100;-73
2023/09/01 01:46:49;;;;;;;2.58;1.27;;;16.80;70.30;;;;;;5033771;28;20051;-73
2023/09/01 01:49:15;;;;;;;2.72;1.33;;;16.80;70.40;;;;;;5033384;28;20033;-74
2023/09/01 01:51:41;;;;;;;3.13;1.17;;;16.70;70.70;;;;;;5033735;28;20024;-73
2023/09/01 01:54:07;;;;;;;2.15;1.27;;;16.70;71.10;;;;;;5033513;28;20029;-73
2023/09/01 01:56:33;;;;;;;3.47;1.20;;;16.70;71.10;;;;;;5033429;28;20056;-73
2023/09/01 01:58:58;;;;;;;3.67;1.40;;;16.70;71.30;;;;;;5033520;28;20025;-72
2023/09/01 02:01:25;;;;;;;4.18;1.45;;;16.70;71.70;;;;;;5033525;28;20037;-72
2023/09/01 02:03:51;;;;;;;4.10;1.50;;;16.60;71.70;;;;;;5033494;28;20383;-72
2023/09/01 02:06:17;;;;;;;4.22;1.63;;;16.60;72.00;;;;;;5033284;28;20501;-72
2023/09/01 02:08:43;;;;;;;4.85;1.60;;;16.60;72.10;;;;;;5033408;28;20037;-72
2023/09/01 02:11:08;;;;;;;5.70;1.80;;;16.60;72.30;;;;;;5033270;28;20053;-72
2023/09/01 02:13:34;;;;;;;3.70;1.33;;;16.60;72.60;;;;;;5033310;28;20025;-72
2023/09/01 02:15:59;;;;;;;2.67;1.55;;;16.60;72.70;;;;;;5033148;28;20476;-72
2023/09/01 02:18:25;;;;;;;1.92;1.30;;;16.60;72.60;;;;;;5033183;28;20025;-74
2023/09/01 02:20:50;;;;;;;3.25;1.20;;;16.60;72.90;;;;;;5032024;28;20017;-73
2023/09/01 02:23:17;;;;;;;5.25;1.13;;;16.60;73.10;;;;;;5032970;28;20029;-72
2023/09/01 02:25:46;;;;;;;2.20;0.90;;;16.60;73.10;;;;;;5031762;28;20442;-74
2023/09/01 02:28:12;;;;;;;2.40;1.10;;;16.60;73.20;;;;;;5033105;28;20037;-75
2023/09/01 02:30:38;;;;;;;2.67;1.00;;;16.60;73.20;;;;;;5033065;28;20034;-72
2023/09/01 02:33:04;;;;;;;4.93;1.30;;;16.60;73.30;;;;;;5032267;28;20586;-72
2023/09/01 02:35:30;;;;;;;1.80;0.98;;;16.70;73.50;;;;;;5031931;28;20127;-73
2023/09/01 02:37:56;;;;;;;2.13;0.90;;;16.60;73.60;;;;;;5032895;28;20029;-72
2023/09/01 02:40:24;;;;;;;3.03;1.05;;;16.70;73.50;;;;;;5032957;28;20471;-72
2023/09/01 02:42:51;;;;;;;3.10;1.08;;;16.70;73.30;;;;;;5032536;28;20056;-72
2023/09/01 02:45:17;;;;;;;1.35;0.90;;;16.70;73.20;;;;;;5032857;28;20416;-72
2023/09/01 02:47:43;;;;;;;2.00;0.90;;;16.70;73.10;;;;;;5031421;28;20675;-72
2023/09/01 02:50:09;;;;;;;1.80;0.88;;;16.70;73.20;;;;;;5032588;28;20025;-72
2023/09/01 02:52:35;;;;;;;1.70;0.73;;;16.70;74.30;;;;;;5032620;28;20128;-71
2023/09/01 02:55:01;;;;;;;1.67;0.75;;;16.70;73.70;;;;;;5032693;28;20425;-73
2023/09/01 02:57:27;;;;;;;0.60;0.60;;;16.80;73.60;;;;;;5033043;28;20021;-74
2023/09/01 02:59:53;;;;;;;2.40;0.95;;;16.80;73.50;;;;;;5032770;28;20053;-75
2023/09/01 03:02:19;;;;;;;1.60;0.80;;;16.80;74.50;;;;;;5031598;28;20049;-75
2023/09/01 03:04:45;;;;;;;1.52;0.95;;;16.80;73.90;;;;;;5032697;28;20083;-74
2023/09/01 03:07:10;;;;;;;1.40;0.65;;;16.80;74.00;;;;;;5032576;28;20383;-72
2023/09/01 03:09:36;;;;;;;0.90;0.60;;;16.80;74.20;;;;;;5032591;28;20133;-75
2023/09/01 03:12:01;;;;;;;1.85;0.55;;;16.80;74.30;;;;;;5032712;28;20021;-72
2023/09/01 03:14:27;;;;;;;1.50;0.50;;;16.90;74.20;;;;;;5032605;28;20029;-72
2023/09/01 03:16:52;;;;;;;1.40;0.55;;;16.90;74.80;;;;;;5032537;28;20384;-75
2023/09/01 03:19:18;;;;;;;0.82;0.70;;;16.90;74.00;;;;;;5032573;28;20113;-72
2023/09/01 03:21:43;;;;;;;1.15;0.50;;;16.90;74.00;;;;;;5032642;28;20120;-75
2023/09/01 03:24:09;;;;;;;1.70;0.60;;;16.90;73.80;;;;;;5032516;28;20061;-72
2023/09/01 03:26:34;;;;;;;0.85;0.30;;;16.90;73.90;;;;;;5032444;28;20151;-75
2023/09/01 03:29:02;;;;;;;1.65;0.47;;;16.90;73.90;;;;;;5031089;28;20110;-73
2023/09/01 03:31:28;;;;;;;1.05;0.70;;;17.00;73.70;;;;;;5032580;28;20484;-74
2023/09/01 03:33:54;;;;;;;1.15;0.50;;;17.00;73.80;;;;;;5032432;28;20041;-73
2023/09/01 03:36:20;;;;;;;0.43;0.43;;;17.00;73.90;;;;;;5032373;28;20402;-74
2023/09/01 03:38:45;;;;;;;2.08;0.70;;;17.00;74.10;;;;;;5035287;28;20097;-73
2023/09/01 03:41:11;;;;;;;0.88;0.60;;;17.00;74.20;;;;;;5072262;28;20119;-74
2023/09/01 03:43:36;;;;;;;0.55;0.50;;;17.00;74.40;;;;;;5071394;28;20057;-73
2023/09/01 03:46:02;;;;;;;0.60;0.60;;;17.00;74.20;;;;;;5075632;28;20107;-74
2023/09/01 03:48:28;;;;;;;1.20;0.47;;;17.00;74.30;;;;;;5076065;28;20071;-74
2023/09/01 03:51:11;;;;;;;0.70;0.50;;;16.90;74.30;;;;;;5075758;28;20443;-73
2023/09/01 03:53:38;;;;;;;1.92;0.70;;;16.90;74.40;;;;;;5075749;28;20025;-73
2023/09/01 03:56:08;;;;;;;0.80;0.70;;;16.90;74.70;;;;;;5075770;28;20024;-73
2023/09/01 03:58:35;;;;;;;1.08;0.50;;;16.90;74.70;;;;;;5075649;28;20021;-73
2023/09/01 04:01:00;;;;;;;1.77;0.50;;;16.90;74.80;;;;;;5075812;28;20520;-74
2023/09/01 04:03:26;;;;;;;1.40;0.63;;;16.90;75.00;;;;;;5075742;28;20041;-75
2023/09/01 04:06:00;;;;;;;2.53;0.90;;;16.80;75.10;;;;;;5075576;28;20114;-76
2023/09/01 04:08:26;;;;;;;1.15;0.52;;;16.80;75.20;;;;;;5075318;28;20077;-76
2023/09/01 04:10:52;;;;;;;1.00;0.60;;;16.80;75.30;;;;;;5075323;28;20060;-75
2023/09/01 04:13:17;;;;;;;1.05;0.40;;;16.80;75.40;;;;;;5075611;28;20021;-76
2023/09/01 04:15:43;;;;;;;1.33;0.60;;;16.80;75.60;;;;;;5075331;28;20427;-72
2023/09/01 04:18:08;;;;;;;0.82;0.60;;;16.80;75.80;;;;;;5075312;28;20040;-72
2023/09/01 04:20:34;;;;;;;1.05;0.52;;;16.90;76.00;;;;;;5075128;28;20016;-72
2023/09/01 04:22:59;;;;;;;1.33;0.63;;;16.90;76.00;;;;;;5075261;28;20024;-72
2023/09/01 04:25:25;;;;;;;0.45;0.40;;;16.90;76.10;;;;;;5075314;28;20024;-72
2023/09/01 04:27:51;;;;;;;0.77;0.30;;;16.90;76.20;;;;;;5075069;28;20056;-72
2023/09/01 04:30:16;;;;;;;1.73;0.70;;;17.00;76.20;;;;;;5074971;28;20055;-71
2023/09/01 04:32:44;;;;;;;1.15;0.60;;;17.00;75.90;;;;;;5075127;28;20374;-73
2023/09/01 04:35:10;;;;;;;1.33;1.00;;;17.10;76.00;;;;;;5075399;28;20029;-73
2023/09/01 04:37:36;;;;;;;1.25;0.60;;;17.10;76.00;;;;;;5075031;28;20029;-72
2023/09/01 04:40:06;;;;;;;3.05;0.65;;;17.10;76.10;;;;;;5074880;28;20077;-73
2023/09/01 04:42:32;;;;;;;0.65;0.52;;;17.10;76.00;;;;;;5074652;28;20017;-73
2023/09/01 04:44:57;;;;;;;1.05;0.50;;;17.10;76.00;;;;;;5075216;28;20053;-74
2023/09/01 04:47:23;;;;;;;2.35;0.70;;;17.10;76.10;;;;;;5074852;28;20036;-73
2023/09/01 04:49:49;;;;;;;0.45;0.45;;;17.20;76.10;;;;;;5075970;28;20091;-73
2023/09/01 04:52:15;;;;;;;0.93;0.40;;;17.10;76.30;;;;;;5079650;28;20466;-73
2023/09/01 04:54:40;;;;;;;0.68;0.43;;;17.20;76.10;;;;;;5074543;28;20032;-73
2023/09/01 04:57:06;;;;;;;1.73;0.60;;;17.20;76.00;;;;;;5077082;28;20058;-73
2023/09/01 04:59:32;;;;;;;2.42;0.90;;;17.20;75.80;;;;;;5073540;28;20107;-72
2023/09/01 05:01:59;;;;;;;0.88;0.60;;;17.20;75.70;;;;;;5073417;28;20043;-73
2023/09/01 05:04:25;;;;;;;2.42;0.88;;;17.30;75.60;;;;;;5074558;28;20073;-73
2023/09/01 05:06:51;;;;;;;1.85;0.80;;;17.30;75.40;;;;;;5074747;28;20458;-73
2023/09/01 05:09:16;;;;;;;2.15;0.73;;;17.30;75.80;;;;;;5074187;28;20052;-72
2023/09/01 05:11:42;;;;;;;2.30;0.50;;;17.30;75.90;;;;;;5074435;28;20024;-72
2023/09/01 05:14:07;;;;;;;1.08;0.68;;;17.30;75.80;;;;;;5072934;28;20467;-73
2023/09/01 05:16:33;;;;;;;2.15;0.80;;;17.30;76.00;;;;;;5074477;28;20074;-71
2023/09/01 05:18:59;;;;;;;2.30;0.88;;;17.20;75.80;;;;;;5074234;28;20031;-72
2023/09/01 05:21:24;;;;;;;1.48;0.60;;;17.30;75.90;;;;;;5074111;28;20074;-73
2023/09/01 05:23:50;;;;;;;1.80;0.52;;;17.20;75.80;;;;;;5074056;28;20047;-72
2023/09/01 05:26:15;;;;;;;2.50;0.77;;;17.30;75.70;;;;;;5074085;28;20025;-72
2023/09/01 05:28:41;;;;;;;2.85;0.82;;;17.30;75.50;;;;;;5073788;28;20033;-71
2023/09/01 05:31:06;;;;;;;2.05;0.57;;;17.30;75.50;;;;;;5073791;28;20028;-71
2023/09/01 05:33:32;;;;;;;4.20;0.85;;;17.20;75.40;;;;;;5075579;28;20025;-71
2023/09/01 05:35:57;;;;;;;0.52;0.52;;;17.30;75.30;;;;;;5074268;28;20043;-72
2023/09/01 05:38:23;;;;;;;1.15;0.75;;;17.30;75.00;;;;;;5073693;28;20028;-72
2023/09/01 05:40:56;;;;;;;1.98;0.82;;;17.30;75.10;;;;;;5073531;28;20059;-72
2023/09/01 05:43:22;;;;;;;0.73;0.45;;;17.40;75.00;;;;;;5073747;28;20018;-71
2023/09/01 05:45:48;;;;;;;2.38;0.60;;;17.40;74.80;;;;;;5073746;28;20056;-72
2023/09/01 05:48:13;;;;;;;2.80;0.80;;;17.40;74.80;;;;;;5073781;28;20409;-73
2023/09/01 05:50:39;;;;;;;2.95;0.63;;;17.40;75.60;;;;;;5073486;28;20039;-72
2023/09/01 05:53:04;;;;;;;1.75;0.90;;;17.40;76.60;;;;;;5073297;28;20025;-71
2023/09/01 05:55:30;;;;;;;2.22;0.77;;;17.30;77.10;;;;;;5073395;28;20027;-72
2023/09/01 05:57:55;;;;;;;0.90;0.70;;;17.30;77.50;;;;;;5073374;28;20413;-72
2023/09/01 06:00:22;;;;;;;2.65;2.17;;;17.20;78.60;;;;;;5073383;28;20024;-73
2023/09/01 06:02:48;;;;;;;3.63;1.55;;;17.00;79.40;;;;;;5073247;28;20437;-73
2023/09/01 06:05:13;;;;;;;1.65;0.77;;;17.00;80.10;;;;;;5073201;28;20055;-71
2023/09/01 06:07:39;;;;;;;2.22;0.80;;;17.00;81.60;;;;;;5072461;28;20048;-72
2023/09/01 06:10:05;;;;;;;3.33;1.00;;;17.00;80.70;;;;;;5071746;28;20117;-72
2023/09/01 06:12:30;;;;;;;4.30;0.93;;;17.00;80.80;;;;;;5071887;28;20051;-72
2023/09/01 06:14:56;;;;;;;3.72;0.90;;;17.00;80.30;;;;;;5072989;28;20048;-74
2023/09/01 06:17:22;;;;;;;1.42;0.80;;;17.00;80.50;;;;;;5072848;28;20502;-72
2023/09/01 06:19:47;;;;;;;1.92;0.95;;;17.00;80.80;;;;;;5072148;28;20020;-74
2023/09/01 06:22:13;;;;;;;2.95;1.10;;;17.10;79.60;;;;;;5072918;28;20017;-72
2023/09/01 06:24:39;;;;;;;4.55;1.20;;;17.00;79.50;;;;;;5072852;28;20154;-72
2023/09/01 06:27:04;;;;;;;2.15;1.05;;;17.10;79.20;;;;;;5072504;28;20074;-71
2023/09/01 06:29:30;;;;;;;2.47;1.08;;;17.10;78.70;;;;;;5072577;28;20050;-73
2023/09/01 06:31:55;;;;;;;1.30;1.00;;;17.20;79.00;;;;;;5072833;28;20066;-72
2023/09/01 06:34:21;;;;;;;3.40;1.00;;;17.20;77.90;;;;;;5072827;28;20111;-72
2023/09/01 06:36:46;;;;;;;2.33;0.93;;;17.30;78.30;;;;;;5072565;28;20035;-72
2023/09/01 06:39:13;;;;;;;1.48;1.00;;;17.30;76.80;;;;;;5072556;28;20028;-72
2023/09/01 06:41:39;;;;;;;3.15;1.10;;;17.30;76.90;;;;;;5072692;28;20017;-73
2023/09/01 06:44:04;;;;;;;2.13;0.90;;;17.40;77.50;;;;;;5073370;28;20478;-73
2023/09/01 06:46:30;;;;;;;2.97;1.13;;;17.50;76.90;;;;;;5072709;28;20028;-72
2023/09/01 06:48:55;;;;;;;1.40;0.82;;;17.50;77.00;;;;;;5072522;28;20029;-73
2023/09/01 06:51:21;;;;;;;3.42;1.30;;;17.60;76.50;;;;;;5072550;28;20028;-72
2023/09/01 06:53:46;;;;;;;2.80;1.38;;;17.60;75.60;;;;;;5076527;28;20386;-72
2023/09/01 06:56:12;;;;;;;1.30;1.10;;;17.70;76.20;;;;;;5072709;28;20032;-72
2023/09/01 06:58:37;;;;;;;1.65;1.08;;;17.70;76.10;;;;;;5072399;28;20139;-72
2023/09/01 07:01:11;;;;;;;3.20;1.20;;;17.80;75.00;;;;;;5071973;28;20095;-72
2023/09/01 07:03:37;;;;;;;4.30;1.30;;;17.90;74.80;;;;;;5072463;28;20422;-73
2023/09/01 07:06:03;;;;;;;4.20;0.90;;;17.90;75.10;;;;;;5071904;28;20077;-72
2023/09/01 07:08:30;;;;;;;5.10;1.73;;;18.00;74.50;;;;;;5072299;28;20417;-75
2023/09/01 07:11:09;;;;;;;4.00;1.50;;;18.00;74.10;;;;;;5070928;28;20131;-76
2023/09/01 07:13:34;;;;;;;2.10;1.20;;;18.00;74.70;;;;;;5072390;28;20112;-73
2023/09/01 07:16:00;;;;;;;2.65;1.10;;;18.10;73.60;;;;;;5071930;28;20535;-73
2023/09/01 07:18:26;;;;;;;2.33;1.17;;;18.10;73.30;;;;;;5074309;28;20025;-78
2023/09/01 07:20:51;;;;;;;4.22;1.13;;;18.20;72.40;;;;;;5076621;28;20111;-76
2023/09/01 07:23:18;;;;;;;3.83;1.10;;;18.30;72.30;;;;;;5076523;28;20040;-84
2023/09/01 07:25:44;;;;;;;2.13;0.90;;;18.30;73.70;;;;;;5075744;28;20028;-77
2023/09/01 07:28:13;;;;;;;2.58;1.00;;;18.20;72.30;;;;;;5078368;28;20017;-80
2023/09/01 07:30:40;;;;;;;1.63;0.90;;;18.20;72.40;;;;;;5076793;28;20366;-84
2023/09/01 07:33:06;;;;;;;1.85;0.90;;;18.30;72.40;;;;;;5075944;28;20046;-79
2023/09/01 07:35:31;;;;;;;1.63;1.02;;;18.40;71.40;;;;;;5076726;28;20025;-83
2023/09/01 07:37:57;;;;;;;3.13;1.55;;;18.50;71.10;;;;;;5076137;28;20016;-82
2023/09/01 07:40:23;;;;;;;3.30;1.77;;;18.60;72.00;;;;;;5075423;28;20027;-80
2023/09/01 07:42:49;;;;;;;5.28;1.00;;;18.70;71.50;;;;;;5076911;28;20074;-86
2023/09/01 07:45:15;;;;;;;2.50;1.20;;;18.80;71.10;;;;;;5076561;28;20485;-80
2023/09/01 07:47:42;;;;;;;3.20;1.13;;;18.90;69.50;;;;;;5077331;28;20027;-79
2023/09/01 07:50:08;;;;;;;1.70;1.13;;;18.90;68.70;;;;;;5076313;28;20047;-80
2023/09/01 07:52:34;;;;;;;3.03;1.20;;;19.00;69.40;;;;;;5076215;28;20017;-79
2023/09/01 07:54:59;;;;;;;2.63;1.10;;;19.10;69.20;;;;;;5075067;28;20030;-78
2023/09/01 07:57:25;;;;;;;2.03;1.00;;;19.20;68.90;;;;;;5074812;28;20024;-84
2023/09/01 07:59:50;;;;;;;2.95;1.17;;;19.20;68.70;;;;;;5076480;28;20033;-79
2023/09/01 08:02:16;;;;;;;2.83;1.20;;;19.30;68.30;;;;;;5075711;28;20017;-80
2023/09/01 08:04:41;;;;;;;2.83;1.20;;;19.40;67.10;;;;;;5075099;28;20179;-79
2023/09/01 08:07:07;;;;;;;1.35;1.10;;;19.40;66.80;;;;;;5075925;28;20074;-79
2023/09/01 08:09:33;;;;;;;3.13;1.17;;;19.30;66.80;;;;;;5076043;28;20155;-79
2023/09/01 08:11:58;;;;;;;1.80;0.90;;;19.30;66.70;;;;;;5081132;28;20027;-79
2023/09/01 08:14:24;;;;;;;3.85;1.10;;;19.50;66.10;;;;;;5076150;28;20490;-80
2023/09/01 08:16:49;;;;;;;4.53;1.05;;;19.50;67.10;;;;;;5075427;28;20478;-79
2023/09/01 08:19:15;;;;;;;3.15;1.23;;;19.40;65.50;;;;;;5075748;28;20044;-78
2023/09/01 08:21:41;;;;;;;4.43;1.10;;;19.50;65.80;;;;;;5075598;28;20619;-79
2023/09/01 08:24:07;;;;;;;3.08;0.80;;;19.50;64.90;;;;;;5075818;28;20151;-79
2023/09/01 08:26:33;;;;;;;1.42;1.00;;;19.40;65.20;;;;;;5075349;28;20107;-80
2023/09/01 08:28:59;;;;;;;1.52;0.90;;;19.50;65.50;;;;;;5075190;28;20025;-79
2023/09/01 08:31:25;;;;;;;3.88;1.10;;;19.50;66.10;;;;;;5075155;28;20025;-80
2023/09/01 08:33:51;;;;;;;2.40;1.15;;;19.50;65.20;;;;;;5074139;28;20053;-80
2023/09/01 08:36:17;;;;;;;3.53;1.38;;;19.50;64.40;;;;;;5075152;28;20020;-73
2023/09/01 08:38:43;;;;;;;3.30;1.00;;;19.40;64.40;;;;;;5074775;28;20027;-73
2023/09/01 08:41:08;;;;;;;2.40;1.00;;;19.40;65.10;;;;;;5074750;28;20108;-72
2023/09/01 08:43:38;;;;;;;2.30;1.15;;;19.60;64.80;;;;;;5074490;28;20036;-73
2023/09/01 08:46:05;;;;;;;3.70;1.10;;;19.50;64.60;;;;;;5074728;28;20521;-73
2023/09/01 08:48:32;;;;;;;3.33;1.05;;;19.50;64.00;;;;;;5074685;28;20485;-73
2023/09/01 08:50:58;;;;;;;2.42;1.08;;;19.50;64.90;;;;;;5074642;28;20032;-72
2023/09/01 08:53:26;;;;;;;2.65;0.90;;;19.70;64.30;;;;;;5074688;28;20607;-71
2023/09/01 08:55:55;;;;;;;3.83;1.13;;;19.70;64.60;;;;;;5073378;28;20024;-73
2023/09/01 08:58:21;;;;;;;1.73;0.95;;;19.80;65.00;;;;;;5056355;28;20029;-72
2023/09/01 09:00:48;;;;;;;2.70;1.10;;;19.90;63.80;;;;;;5054044;28;20463;-73
2023/09/01 09:03:14;;;;;;;1.90;1.20;;;20.00;63.60;;;;;;5058901;28;20067;-73
2023/09/01 09:05:40;;;;;;;3.25;0.90;;;20.20;64.40;;;;;;5054309;28;20163;-73
2023/09/01 09:08:07;;;;;;;1.92;0.98;;;20.50;62.50;;;;;;5053971;28;20025;-74
2023/09/01 09:10:39;;;;;;;2.20;0.85;;;20.70;62.00;;;;;;5054308;28;20049;-74
2023/09/01 09:13:23;;;;;;;2.22;1.20;;;20.70;61.60;;;;;;5054424;28;20029;-74
2023/09/01 09:16:08;;;;;;;2.55;1.15;;;20.50;60.60;;;;;;5053764;28;20029;-75
2023/09/01 09:18:35;;;;;;;2.53;1.02;;;20.30;61.80;;;;;;5052993;28;20032;-74
2023/09/01 09:21:02;;;;;;;2.95;1.10;;;20.20;62.40;;;;;;5054061;28;20040;-75
2023/09/01 09:23:42;;;;;;;3.08;1.00;;;20.40;62.20;;;;;;5052685;28;20025;-73
2023/09/01 09:26:07;;;;;;;2.05;0.75;;;20.40;61.00;;;;;;5048366;28;20343;-76
2023/09/01 09:28:33;;;;;;;2.03;0.90;;;20.40;62.00;;;;;;5056866;28;20017;-73
2023/09/01 09:31:00;;;;;;;3.40;1.02;;;20.40;61.60;;;;;;5052837;28;20029;-74
2023/09/01 09:33:45;;;;;;;2.10;1.00;;;20.50;62.20;;;;;;5052607;28;20378;-75
2023/09/01 09:36:10;;;;;;;1.60;1.10;;;20.50;61.70;;;;;;5053044;28;20074;-72
2023/09/01 09:38:40;;;;;;;1.48;0.88;;;20.40;61.30;;;;;;5052325;28;20017;-73
2023/09/01 09:41:06;;;;;;;1.67;1.20;;;20.40;62.30;;;;;;5052803;28;20430;-73
2023/09/01 09:43:52;;;;;;;3.60;1.10;;;20.30;63.40;;;;;;5052862;28;20043;-75
2023/09/01 09:46:19;;;;;;;;;;;20.40;63.40;;;;;;5053694;28;20029;-73
2023/09/01 09:48:45;;;;;;;1.75;0.90;;;20.50;63.00;;;;;;5052206;28;19908;-76
2023/09/01 09:51:14;;;;;;;3.60;0.98;;;20.70;63.10;;;;;;5053545;28;20080;-74
2023/09/01 09:53:41;;;;;;;2.30;1.00;;;20.90;61.50;;;;;;5053835;28;20035;-78
2023/09/01 09:56:30;;;;;;;2.28;1.00;;;21.00;60.70;;;;;;5053653;28;20067;-76
2023/09/01 09:59:01;;;;;;;2.28;0.90;;;20.80;60.70;;;;;;5053481;28;20025;-77
2023/09/01 10:01:30;;;;;;;2.33;1.00;;;21.00;60.70;;;;;;5051799;28;20425;-78
2023/09/01 10:03:58;;;;;;;1.30;0.93;;;20.90;60.70;;;;;;5051695;28;20029;-74
2023/09/01 10:06:24;;;;;;;1.30;0.73;;;20.80;61.00;;;;;;5052383;28;20096;-79
2023/09/01 10:08:51;;;;;;;1.40;0.70;;;20.90;60.40;;;;;;5052694;28;20044;-77
2023/09/01 10:11:17;;;;;;;2.90;0.90;;;20.80;60.50;;;;;;5052652;28;20178;-78
2023/09/01 10:13:47;;;;;;;1.27;0.98;;;20.90;60.10;;;;;;5052856;28;20025;-77
2023/09/01 10:16:13;;;;;;;2.03;0.90;;;20.90;60.30;;;;;;5052759;28;20114;-77
2023/09/01 10:18:44;;;;;;;1.67;0.85;;;21.10;59.90;;;;;;5052674;28;20108;-78
2023/09/01 10:21:11;;;;;;;2.05;0.85;;;21.10;60.30;;;;;;5052917;28;20524;-77
2023/09/01 10:23:37;;;;;;;4.60;1.20;;;21.20;60.30;;;;;;5053399;28;20029;-79
2023/09/01 10:26:15;;;;;;;1.55;0.73;;;21.20;60.50;;;;;;5053009;28;20108;-78
2023/09/01 10:28:54;;;;;;;1.13;0.80;;;21.20;58.90;;;;;;5053101;28;20100;-78
2023/09/01 10:31:23;;;;;;;0.85;0.80;;;21.10;60.20;;;;;;5052379;28;20021;-76
2023/09/01 10:34:02;;;;;;;1.75;1.05;;;21.30;60.00;;;;;;5052194;28;20032;-75
2023/09/01 10:36:28;;;;;;;1.98;1.00;;;21.30;59.00;;;;;;5052348;28;20033;-75
2023/09/01 10:38:53;;;;;;;1.20;0.70;;;21.00;59.20;;;;;;5048059;28;20029;-75
2023/09/01 10:41:53;;;;;;;2.05;1.10;;;21.00;60.00;;;;;;5051975;28;20029;-73
2023/09/01 10:44:21;;;;;;;2.53;1.08;;;21.00;60.10;;;;;;5046825;28;20028;-75
2023/09/01 10:46:47;;;;;;;2.33;1.00;;;21.20;60.90;;;;;;5056161;28;20387;-76
2023/09/01 10:49:12;;;;;;;3.55;0.93;;;21.40;59.20;;;;;;5052168;28;20135;-73
2023/09/01 10:51:39;;;;;;;1.10;0.80;;;21.30;59.20;;;;;;5051793;28;20127;-74
2023/09/01 10:54:14;;;;;;;1.58;0.90;;;21.60;58.50;;;;;;5051593;28;20462;-73
2023/09/01 10:57:02;;;;;;;1.38;1.00;;;21.80;58.90;;;;;;5050100;28;20025;-76
2023/09/01 10:59:29;;;;;;;0.95;0.77;;;22.20;57.40;;;;;;5049977;28;20394;-76
2023/09/01 11:01:54;;;;;;;2.60;0.98;;;22.60;55.70;;;;;;5049480;28;20410;-76
2023/09/01 11:04:20;;;;;;;1.77;0.60;;;22.80;54.80;;;;;;5052489;28;20025;-75
2023/09/01 11:06:58;;;;;;;1.17;0.70;;;22.90;54.60;;;;;;5051971;28;20131;-76
2023/09/01 11:09:43;;;;;;;1.42;0.95;;;23.00;52.50;;;;;;5050226;28;20072;-72
2023/09/01 11:12:12;;;;;;;4.32;0.88;;;23.00;52.90;;;;;;5051355;28;20045;-75
2023/09/01 11:14:59;;;;;;;2.53;0.75;;;23.10;53.70;;;;;;5051824;28;20475;-73
2023/09/01 11:17:51;;;;;;;0.80;0.70;;;23.10;52.90;;;;;;5050386;28;20067;-75
2023/09/01 11:20:19;;;;;;;2.47;0.70;;;23.20;52.80;;;;;;5046675;28;20439;-75
2023/09/01 11:22:45;;;;;;;3.13;1.20;;;23.10;52.90;;;;;;5051825;28;20032;-77
2023/09/01 11:25:15;;;;;;;3.22;1.05;;;23.10;52.60;;;;;;5050210;28;20025;-74
2023/09/01 11:27:45;;;;;;;1.75;0.80;;;23.00;52.10;;;;;;5051616;28;20104;-74
2023/09/01 11:30:11;;;;;;;2.97;0.98;;;22.80;50.90;;;;;;5051728;28;20078;-76
2023/09/01 11:32:37;;;;;;;1.83;1.00;;;22.60;52.00;;;;;;5051737;28;20025;-76
2023/09/01 11:35:03;;;;;;;1.60;0.95;;;22.50;53.40;;;;;;5051308;28;20020;-75
2023/09/01 11:37:39;;;;;;;3.85;1.10;;;22.60;52.60;;;;;;5051114;28;20514;-77
2023/09/01 11:40:09;;;;;;;1.80;1.30;;;22.80;51.40;;;;;;5049118;28;20035;-79
2023/09/01 11:42:37;;;;;;;9.68;6.65;;;23.10;51.30;;;;;;5051140;28;20080;-79
2023/09/01 11:45:08;;;;;;;2.65;1.20;;;23.20;51.80;;;;;;5051862;28;20017;-78
2023/09/01 11:47:34;;;;;;;1.77;0.93;;;23.60;51.00;;;;;;5052071;28;20017;-74
2023/09/01 11:50:00;;;;;;;1.10;0.98;;;24.00;49.60;;;;;;5051872;28;20368;-76
2023/09/01 11:52:25;;;;;;;1.30;0.73;;;24.10;46.80;;;;;;5051937;28;20025;-74
2023/09/01 11:54:52;;;;;;;3.47;1.10;;;24.00;47.20;;;;;;5051578;28;20374;-75
2023/09/01 11:57:18;;;;;;;2.10;1.00;;;23.80;47.60;;;;;;5051336;28;20038;-76
2023/09/01 11:59:44;;;;;;;1.70;1.50;;;23.60;48.90;;;;;;5050959;28;20387;-78
2023/09/01 12:02:19;;;;;;;1.45;0.75;;;23.50;49.50;;;;;;5051926;28;20079;-76
2023/09/01 12:04:51;;;;;;;2.28;1.13;;;23.80;48.90;;;;;;5054579;28;20044;-74
2023/09/01 12:07:24;;;;;;;1.17;0.90;;;23.70;48.50;;;;;;5053860;28;20104;-74
2023/09/01 12:09:52;;;;;;;2.63;1.17;;;23.90;47.90;;;;;;5054732;28;20059;-74
2023/09/01 12:12:18;;;;;;;2.67;1.30;;;23.70;48.10;;;;;;5052123;28;20017;-74
2023/09/01 12:14:43;;;;;;;3.72;0.73;;;23.60;48.90;;;;;;5054637;28;20033;-77
2023/09/01 12:17:21;;;;;;;1.52;0.90;;;23.50;48.90;;;;;;5054517;28;20040;-74
2023/09/01 12:19:51;;;;;;;1.23;0.95;;;23.70;48.20;;;;;;5052114;28;20024;-75
2023/09/01 12:22:20;;;;;;;2.15;1.08;;;23.70;47.50;;;;;;5054455;28;20036;-73
2023/09/01 12:25:04;;;;;;;1.00;0.90;;;23.80;48.30;;;;;;5054928;28;20072;-73
2023/09/01 12:27:31;;;;;;;1.85;1.17;;;23.70;48.20;;;;;;5055026;28;20071;-72
2023/09/01 12:29:56;;;;;;;3.47;1.30;;;23.60;48.40;;;;;;5054937;28;20037;-75
2023/09/01 12:32:22;;;;;;;2.58;2.33;;;23.50;48.10;;;;;;5054748;28;20049;-72
2023/09/01 12:34:47;;;;;;;3.10;1.60;;;23.30;48.50;;;;;;5054904;28;20025;-74
2023/09/01 12:37:13;;;;;;;1.88;1.05;;;23.30;46.30;;;;;;5055251;28;20032;-73
2023/09/01 12:39:38;;;;;;;2.55;1.20;;;23.50;46.10;;;;;;5055190;28;20024;-77
2023/09/01 12:42:04;;;;;;;1.63;1.10;;;23.80;44.00;;;;;;5054112;28;20467;-74
2023/09/01 12:44:30;;;;;;;2.05;1.40;;;24.10;43.70;;;;;;5054246;28;20025;-77
2023/09/01 12:46:56;;;;;;;3.97;1.40;;;24.30;42.90;;;;;;5053562;28;20025;-73
2023/09/01 12:49:21;;;;;;;3.17;0.90;;;24.20;43.00;;;;;;5053262;28;20037;-74